Time;durP1;ratioP1;P1;durP2;ratioP2;P2;SDS_P1;SDS_P2;PMS_P1;PMS_P2;Temp;Humidity;BMP_temperature;BMP_pressure;BME280_temperature;BME280_humidity;BME280_pressure;Samples;Min_cycle;Max_cycle;Signal;HPM_P1;HPM_P2
2023/11/25 00:02:20;;;;;;;4.47;1.00;;;;;;;;;;5015709;28;20458;-84
2023/11/25 00:04:46;;;;;;;2.27;1.23;;;;;;;;;;5015658;28;20993;-84
2023/11/25 00:07:12;;;;;;;3.77;0.87;;;;;;;;;;5014096;28;20518;-84
2023/11/25 00:09:38;;;;;;;6.30;0.90;;;;;;;;;;5014517;28;20517;-83
2023/11/25 00:12:04;;;;;;;2.70;1.23;;;;;;;;;;5015325;28;20888;-84
2023/11/25 00:14:30;;;;;;;5.03;1.03;;;;;;;;;;5015476;28;20415;-83
2023/11/25 00:16:56;;;;;;;4.57;1.00;;;;;;;;;;5015390;28;20471;-83
2023/11/25 00:19:22;;;;;;;3.47;0.80;;;;;;;;;;5015431;28;20420;-83
2023/11/25 00:21:48;;;;;;;2.30;0.53;;;;;;;;;;5014752;28;20480;-84
2023/11/25 00:24:14;;;;;;;6.33;1.37;;;;;;;;;;5015320;28;20410;-84
2023/11/25 00:26:40;;;;;;;2.50;1.17;;;;;;;;;;5013400;28;20438;-85
2023/11/25 00:29:06;;;;;;;5.10;1.30;;;;;;;;;;5014003;28;20409;-84
2023/11/25 00:31:34;;;;;;;6.57;0.97;;;;;;;;;;5014862;28;20955;-84
2023/11/25 00:34:00;;;;;;;7.10;0.73;;;;;;;;;;5015193;28;20408;-85
2023/11/25 00:36:26;;;;;;;4.20;0.50;;;;;;;;;;5014709;28;20424;-81
2023/11/25 00:38:52;;;;;;;3.00;0.80;;;;;;;;;;5015135;28;20395;-81
2023/11/25 00:41:18;;;;;;;4.87;0.70;;;;;;;;;;5015025;28;20556;-80
2023/11/25 00:43:44;;;;;;;4.07;0.53;;;;;;;;;;5012843;28;20433;-80
2023/11/25 00:46:10;;;;;;;4.67;1.20;;;;;;;;;;5014017;28;20425;-80
2023/11/25 00:48:36;;;;;;;5.57;0.90;;;;;;;;;;5014786;28;20441;-80
2023/11/25 00:51:02;;;;;;;7.27;1.10;;;;;;;;;;5014955;28;20415;-80
2023/11/25 00:53:28;;;;;;;2.23;0.47;;;;;;;;;;5014587;28;20417;-81
2023/11/25 00:55:54;;;;;;;3.07;0.50;;;;;;;;;;5014761;28;20448;-80
2023/11/25 00:58:20;;;;;;;5.77;0.50;;;;;;;;;;5014869;28;20446;-80
2023/11/25 01:00:46;;;;;;;4.20;1.03;;;;;;;;;;5014574;28;21092;-80
2023/11/25 01:03:12;;;;;;;3.53;0.63;;;;;;;;;;5014557;28;20407;-80
2023/11/25 01:05:38;;;;;;;2.40;0.80;;;;;;;;;;5014503;28;20776;-81
2023/11/25 01:08:04;;;;;;;7.90;1.67;;;;;;;;;;5014023;28;20438;-81
2023/11/25 01:10:29;;;;;;;5.00;1.10;;;;;;;;;;5014473;28;20422;-81
2023/11/25 01:12:58;;;;;;;7.30;1.93;;;;;;;;;;5014547;28;20408;-80
2023/11/25 01:15:24;;;;;;;4.43;1.13;;;;;;;;;;5014421;28;20414;-80
2023/11/25 01:17:50;;;;;;;3.30;0.90;;;;;;;;;;5014432;28;20410;-80
2023/11/25 01:20:16;;;;;;;3.10;1.00;;;;;;;;;;5014196;28;20458;-80
2023/11/25 01:22:42;;;;;;;1.87;0.70;;;;;;;;;;5013962;28;20451;-80
2023/11/25 01:25:08;;;;;;;4.67;0.87;;;;;;;;;;5014333;28;20929;-81
2023/11/25 01:27:35;;;;;;;5.47;0.87;;;;;;;;;;5014237;28;20452;-81
2023/11/25 01:30:04;;;;;;;4.37;1.13;;;;;;;;;;5013834;28;20460;-81
2023/11/25 01:32:30;;;;;;;1.67;0.40;;;;;;;;;;5013872;28;20431;-81
2023/11/25 01:34:59;;;;;;;2.73;1.23;;;;;;;;;;5014101;28;20406;-80
2023/11/25 01:37:28;;;;;;;2.13;0.80;;;;;;;;;;5013534;28;20819;-80
2023/11/25 01:39:54;;;;;;;6.27;0.77;;;;;;;;;;5013641;28;20455;-80
2023/11/25 01:42:20;;;;;;;2.97;0.60;;;;;;;;;;5013847;28;20446;-81
2023/11/25 01:44:46;;;;;;;2.33;1.17;;;;;;;;;;5012705;28;20883;-80
2023/11/25 01:47:13;;;;;;;3.73;0.83;;;;;;;;;;5013993;28;20813;-80
2023/11/25 01:49:40;;;;;;;3.80;0.70;;;;;;;;;;5013866;28;20419;-80
2023/11/25 01:52:08;;;;;;;2.30;0.40;;;;;;;;;;5013368;28;20426;-80
2023/11/25 01:54:34;;;;;;;4.00;0.70;;;;;;;;;;5012537;28;20443;-80
2023/11/25 01:57:02;;;;;;;4.20;0.80;;;;;;;;;;5013679;28;20433;-80
2023/11/25 01:59:28;;;;;;;4.07;0.50;;;;;;;;;;5013356;28;20418;-81
2023/11/25 02:01:55;;;;;;;2.73;0.43;;;;;;;;;;5013548;28;20469;-79
2023/11/25 02:04:24;;;;;;;3.27;0.50;;;;;;;;;;5013603;28;20762;-79
2023/11/25 02:06:50;;;;;;;2.20;0.83;;;;;;;;;;5013159;28;20453;-79
2023/11/25 02:09:17;;;;;;;4.23;1.37;;;;;;;;;;5005852;28;20463;-80
2023/11/25 02:11:55;;;;;;;3.57;0.50;;;;;;;;;;5007794;28;20426;-79
2023/11/25 02:14:21;;;;;;;2.23;0.63;;;;;;;;;;5005144;28;20538;-80
2023/11/25 02:16:47;;;;;;;8.10;0.90;;;;;;;;;;5000222;28;20505;-79
2023/11/25 02:19:13;;;;;;;2.00;0.50;;;;;;;;;;4993779;28;20819;-80
2023/11/25 02:21:40;;;;;;;2.30;0.93;;;;;;;;;;4979225;28;20500;-80
2023/11/25 02:24:07;;;;;;;6.03;0.73;;;;;;;;;;5013151;28;20781;-81
2023/11/25 02:26:34;;;;;;;2.77;0.50;;;;;;;;;;5013062;28;20821;-80
2023/11/25 02:29:00;;;;;;;3.60;0.87;;;;;;;;;;5013055;28;20422;-80
2023/11/25 02:31:26;;;;;;;1.53;0.50;;;;;;;;;;5011702;28;20481;-79
2023/11/25 02:33:52;;;;;;;1.90;0.27;;;;;;;;;;5013145;28;20416;-79
2023/11/25 02:36:17;;;;;;;3.87;1.00;;;;;;;;;;5012856;28;20765;-79
2023/11/25 02:38:43;;;;;;;3.70;1.10;;;;;;;;;;5012914;28;20421;-80
2023/11/25 02:41:10;;;;;;;2.27;0.57;;;;;;;;;;5011758;28;20505;-80
2023/11/25 02:43:36;;;;;;;2.83;1.07;;;;;;;;;;5020067;28;20412;-79
2023/11/25 02:46:03;;;;;;;4.33;0.70;;;;;;;;;;5032598;28;20911;-80
2023/11/25 02:48:29;;;;;;;9.83;0.90;;;;;;;;;;5032762;28;20493;-80
2023/11/25 02:50:55;;;;;;;1.83;0.70;;;;;;;;;;5031340;28;20511;-80
2023/11/25 02:53:21;;;;;;;4.47;0.50;;;;;;;;;;5022841;28;20946;-80
2023/11/25 02:55:47;;;;;;;6.77;1.00;;;;;;;;;;5007121;28;20438;-80
2023/11/25 02:58:13;;;;;;;3.57;0.57;;;;;;;;;;4993120;28;20412;-81
2023/11/25 03:00:43;;;;;;;1.47;0.30;;;;;;;;;;5008228;28;20997;-81
2023/11/25 03:03:13;;;;;;;4.83;1.00;;;;;;;;;;4993203;28;20416;-80
2023/11/25 03:05:42;;;;;;;2.30;0.60;;;;;;;;;;4991934;28;20427;-80
2023/11/25 03:08:11;;;;;;;1.20;0.50;;;;;;;;;;5003179;28;20422;-80
2023/11/25 03:10:39;;;;;;;2.47;0.73;;;;;;;;;;5012891;28;20419;-80
2023/11/25 03:13:05;;;;;;;5.77;0.93;;;;;;;;;;5012798;28;20413;-80
2023/11/25 03:15:40;;;;;;;3.33;1.07;;;;;;;;;;5012810;28;20414;-80
2023/11/25 03:18:06;;;;;;;3.17;0.43;;;;;;;;;;5012515;28;20414;-80
2023/11/25 03:20:36;;;;;;;4.33;0.87;;;;;;;;;;5012609;28;20476;-81
2023/11/25 03:23:03;;;;;;;7.47;1.10;;;;;;;;;;5012321;28;20419;-80
2023/11/25 03:25:30;;;;;;;2.43;0.60;;;;;;;;;;5012591;28;20406;-81
2023/11/25 03:27:57;;;;;;;3.67;0.67;;;;;;;;;;5012467;28;20420;-80
2023/11/25 03:30:22;;;;;;;3.13;0.60;;;;;;;;;;5012318;28;20951;-81
2023/11/25 03:32:49;;;;;;;5.80;0.47;;;;;;;;;;5012592;28;20421;-80
2023/11/25 03:35:15;;;;;;;1.43;0.57;;;;;;;;;;5012443;28;20412;-80
2023/11/25 03:37:41;;;;;;;3.07;0.60;;;;;;;;;;5012139;28;20461;-81
2023/11/25 03:40:07;;;;;;;3.13;0.60;;;;;;;;;;5012245;28;20398;-80
2023/11/25 03:42:36;;;;;;;2.50;0.70;;;;;;;;;;5011441;28;20919;-81
2023/11/25 03:45:02;;;;;;;3.17;1.13;;;;;;;;;;5012336;28;20815;-80
2023/11/25 03:47:28;;;;;;;2.80;0.67;;;;;;;;;;5012439;28;20423;-80
2023/11/25 03:49:54;;;;;;;5.83;0.83;;;;;;;;;;5012359;28;20465;-80
2023/11/25 03:52:21;;;;;;;2.93;0.60;;;;;;;;;;5012013;28;20422;-80
2023/11/25 03:54:48;;;;;;;0.60;0.30;;;;;;;;;;5010934;28;20426;-80
2023/11/25 03:57:14;;;;;;;3.57;0.60;;;;;;;;;;5012566;28;20454;-80
2023/11/25 03:59:40;;;;;;;7.23;0.67;;;;;;;;;;5011794;28;20456;-79
2023/11/25 04:02:06;;;;;;;1.63;0.40;;;;;;;;;;5013319;28;20476;-80
2023/11/25 04:04:33;;;;;;;4.50;1.10;;;;;;;;;;5016140;28;20409;-80
2023/11/25 04:06:58;;;;;;;5.50;1.10;;;;;;;;;;5015763;28;20803;-80
2023/11/25 04:09:25;;;;;;;1.83;0.40;;;;;;;;;;5014643;28;20432;-83
2023/11/25 04:11:51;;;;;;;2.17;0.50;;;;;;;;;;5001628;28;20444;-80
2023/11/25 04:14:17;;;;;;;6.03;1.30;;;;;;;;;;4996412;28;20408;-79
2023/11/25 04:16:43;;;;;;;3.77;0.20;;;;;;;;;;4996173;28;20419;-80
2023/11/25 04:19:10;;;;;;;3.40;0.60;;;;;;;;;;4996258;28;20886;-78
2023/11/25 04:21:40;;;;;;;2.40;0.77;;;;;;;;;;4995834;28;20478;-80
2023/11/25 04:24:10;;;;;;;1.97;0.93;;;;;;;;;;4996120;28;20424;-80
2023/11/25 04:26:36;;;;;;;4.00;1.10;;;;;;;;;;4996217;28;20997;-80
2023/11/25 04:29:02;;;;;;;3.43;1.00;;;;;;;;;;4995968;28;20472;-80
2023/11/25 04:31:28;;;;;;;4.47;0.80;;;;;;;;;;4995863;28;20527;-80
2023/11/25 04:33:54;;;;;;;1.43;0.40;;;;;;;;;;4996023;28;20423;-81
2023/11/25 04:36:20;;;;;;;3.77;0.97;;;;;;;;;;4995644;28;20420;-81
2023/11/25 04:38:46;;;;;;;3.80;0.90;;;;;;;;;;4995852;28;20436;-81
2023/11/25 04:41:12;;;;;;;2.70;0.50;;;;;;;;;;4995838;28;20481;-81
2023/11/25 04:43:38;;;;;;;3.00;0.60;;;;;;;;;;4995842;28;20423;-81
2023/11/25 04:46:09;;;;;;;2.40;0.50;;;;;;;;;;4995694;28;20880;-80
2023/11/25 04:48:35;;;;;;;1.33;0.40;;;;;;;;;;4995668;28;20450;-81
2023/11/25 04:51:01;;;;;;;1.07;0.40;;;;;;;;;;4995356;28;20496;-81
2023/11/25 04:53:29;;;;;;;2.30;0.80;;;;;;;;;;4995613;28;20423;-81
2023/11/25 04:55:55;;;;;;;6.10;0.67;;;;;;;;;;4994249;28;20423;-81
2023/11/25 04:58:22;;;;;;;2.83;0.67;;;;;;;;;;4995597;28;20417;-81
2023/11/25 05:00:48;;;;;;;3.30;0.47;;;;;;;;;;4995374;28;20944;-81
2023/11/25 05:03:14;;;;;;;4.57;0.60;;;;;;;;;;4994179;28;20431;-82
2023/11/25 05:05:40;;;;;;;3.20;0.53;;;;;;;;;;4993864;28;20438;-82
2023/11/25 05:08:07;;;;;;;2.63;0.20;;;;;;;;;;4994149;28;20423;-82
2023/11/25 05:10:36;;;;;;;3.40;0.50;;;;;;;;;;4995360;28;20412;-82
2023/11/25 05:13:02;;;;;;;2.53;0.40;;;;;;;;;;4994415;28;20827;-82
2023/11/25 05:15:28;;;;;;;4.50;1.33;;;;;;;;;;4995176;28;20410;-82
2023/11/25 05:17:54;;;;;;;6.10;0.80;;;;;;;;;;4995254;28;20411;-82
2023/11/25 05:20:20;;;;;;;2.87;0.43;;;;;;;;;;4995155;28;20823;-82
2023/11/25 05:22:46;;;;;;;3.03;0.50;;;;;;;;;;4994862;28;20433;-82
2023/11/25 05:25:15;;;;;;;12.77;1.60;;;;;;;;;;4995027;28;20409;-82
2023/11/25 05:27:41;;;;;;;6.50;0.70;;;;;;;;;;4995101;28;20821;-82
2023/11/25 05:30:11;;;;;;;3.47;1.00;;;;;;;;;;4994783;28;20447;-82
2023/11/25 05:32:37;;;;;;;5.90;0.87;;;;;;;;;;4999927;28;20810;-82
2023/11/25 05:35:05;;;;;;;4.87;0.47;;;;;;;;;;5009949;28;20426;-83
2023/11/25 05:37:31;;;;;;;2.10;0.47;;;;;;;;;;4994313;28;20436;-83
2023/11/25 05:39:59;;;;;;;3.93;0.70;;;;;;;;;;4994717;28;20936;-83
2023/11/25 05:42:27;;;;;;;9.23;2.00;;;;;;;;;;4994729;28;20432;-83
2023/11/25 05:44:53;;;;;;;6.43;1.23;;;;;;;;;;4994653;28;20446;-83
2023/11/25 05:47:21;;;;;;;3.60;0.33;;;;;;;;;;4994615;28;20421;-83
2023/11/25 05:49:47;;;;;;;2.63;0.60;;;;;;;;;;4993370;28;20970;-82
2023/11/25 05:52:13;;;;;;;8.67;0.50;;;;;;;;;;4994114;28;20506;-82
2023/11/25 05:54:39;;;;;;;3.70;0.70;;;;;;;;;;4994558;28;20435;-81
2023/11/25 05:57:05;;;;;;;2.10;0.30;;;;;;;;;;4994372;28;20416;-83
2023/11/25 05:59:31;;;;;;;4.57;0.50;;;;;;;;;;4994465;28;20417;-83
2023/11/25 06:01:56;;;;;;;3.23;0.40;;;;;;;;;;4963479;28;20557;-83
2023/11/25 06:04:23;;;;;;;6.20;0.93;;;;;;;;;;5028786;28;20421;-83
2023/11/25 06:06:49;;;;;;;6.07;1.03;;;;;;;;;;5033269;28;20770;-82
2023/11/25 06:09:15;;;;;;;1.80;0.20;;;;;;;;;;5048854;28;20952;-82
2023/11/25 06:11:41;;;;;;;3.43;0.87;;;;;;;;;;5033484;28;20791;-83
2023/11/25 06:14:10;;;;;;;2.33;1.07;;;;;;;;;;5033464;28;20407;-81
2023/11/25 06:16:36;;;;;;;4.50;0.60;;;;;;;;;;5033369;28;20548;-81
2023/11/25 06:19:03;;;;;;;4.77;0.50;;;;;;;;;;5033352;28;20500;-81
2023/11/25 06:21:29;;;;;;;5.13;1.17;;;;;;;;;;5032886;28;20984;-80
2023/11/25 06:23:55;;;;;;;4.37;0.83;;;;;;;;;;5033112;28;20408;-79
2023/11/25 06:26:21;;;;;;;7.70;1.10;;;;;;;;;;5033262;28;20405;-80
2023/11/25 06:28:48;;;;;;;4.40;0.77;;;;;;;;;;5048554;28;20506;-80
2023/11/25 06:31:14;;;;;;;6.80;0.70;;;;;;;;;;5033109;28;20492;-80
2023/11/25 06:33:41;;;;;;;3.70;0.47;;;;;;;;;;5048493;28;20421;-81
2023/11/25 06:36:07;;;;;;;7.67;1.13;;;;;;;;;;5032826;28;20425;-80
2023/11/25 06:38:33;;;;;;;7.23;0.83;;;;;;;;;;5048454;28;20409;-80
2023/11/25 06:41:01;;;;;;;8.17;0.60;;;;;;;;;;5033116;28;20543;-80
2023/11/25 06:43:27;;;;;;;4.73;1.57;;;;;;;;;;5048427;28;20432;-79
2023/11/25 06:45:53;;;;;;;10.93;1.43;;;;;;;;;;5033005;28;20757;-79
2023/11/25 06:48:19;;;;;;;3.57;1.80;;;;;;;;;;5032981;28;20471;-79
2023/11/25 06:50:45;;;;;;;3.07;0.90;;;;;;;;;;5032657;28;20408;-81
2023/11/25 06:53:11;;;;;;;3.47;0.73;;;;;;;;;;5048242;28;20433;-80
2023/11/25 06:55:41;;;;;;;4.17;0.67;;;;;;;;;;5032931;28;20517;-80
2023/11/25 06:58:07;;;;;;;4.03;0.80;;;;;;;;;;5032913;28;20443;-80
2023/11/25 07:00:33;;;;;;;5.80;0.90;;;;;;;;;;5020392;28;20832;-79
2023/11/25 07:02:59;;;;;;;6.80;1.40;;;;;;;;;;4977006;28;20987;-80
2023/11/25 07:05:26;;;;;;;8.07;1.20;;;;;;;;;;5012645;28;20479;-80
2023/11/25 07:07:52;;;;;;;4.03;1.00;;;;;;;;;;5013119;28;20418;-81
2023/11/25 07:10:18;;;;;;;5.60;1.13;;;;;;;;;;5013169;28;20418;-81
2023/11/25 07:12:44;;;;;;;6.60;1.00;;;;;;;;;;5012994;28;20810;-80
2023/11/25 07:15:10;;;;;;;3.57;0.63;;;;;;;;;;5012979;28;20428;-80
2023/11/25 07:17:39;;;;;;;3.93;1.23;;;;;;;;;;5012888;28;20500;-80
2023/11/25 07:20:06;;;;;;;7.67;0.70;;;;;;;;;;5025634;28;20814;-80
2023/11/25 07:22:32;;;;;;;6.10;1.03;;;;;;;;;;5015644;28;20446;-83
2023/11/25 07:24:58;;;;;;;3.83;1.27;;;;;;;;;;5013061;28;20503;-80
2023/11/25 07:27:24;;;;;;;5.40;1.10;;;;;;;;;;5031990;28;20420;-81
2023/11/25 07:29:50;;;;;;;4.67;1.10;;;;;;;;;;5031889;28;20770;-80
2023/11/25 07:32:17;;;;;;;2.00;0.80;;;;;;;;;;5047415;28;20465;-79
2023/11/25 07:34:43;;;;;;;4.40;0.60;;;;;;;;;;5032352;28;20411;-80
2023/11/25 07:37:09;;;;;;;5.83;0.90;;;;;;;;;;5034049;28;20435;-80
2023/11/25 07:39:35;;;;;;;1.40;0.80;;;;;;;;;;5051345;28;20407;-79
2023/11/25 07:42:01;;;;;;;2.90;1.00;;;;;;;;;;5035876;28;20519;-80
2023/11/25 07:44:30;;;;;;;6.40;1.03;;;;;;;;;;5035754;28;20407;-80
2023/11/25 07:46:56;;;;;;;3.50;0.50;;;;;;;;;;5035853;28;20414;-80
2023/11/25 07:49:22;;;;;;;3.80;0.97;;;;;;;;;;5035730;28;20933;-80
2023/11/25 07:51:49;;;;;;;2.90;0.60;;;;;;;;;;5035416;28;20414;-80
2023/11/25 07:54:15;;;;;;;5.60;1.43;;;;;;;;;;5035330;28;20595;-82
2023/11/25 07:56:41;;;;;;;3.60;0.70;;;;;;;;;;5035503;28;20414;-80
2023/11/25 07:59:07;;;;;;;6.93;1.77;;;;;;;;;;5035731;28;20449;-80
2023/11/25 08:01:33;;;;;;;3.50;0.77;;;;;;;;;;5026976;28;20966;-81
2023/11/25 08:04:00;;;;;;;6.70;1.17;;;;;;;;;;5014900;28;20426;-81
2023/11/25 08:06:26;;;;;;;3.90;0.97;;;;;;;;;;5014826;28;20457;-81
2023/11/25 08:08:52;;;;;;;5.07;1.17;;;;;;;;;;5014570;28;20895;-80
2023/11/25 08:11:22;;;;;;;4.63;0.80;;;;;;;;;;5015747;28;20176;-81
2023/11/25 08:13:48;;;;;;;4.80;1.17;;;;;;;;;;5015627;28;20512;-80
2023/11/25 08:16:14;;;;;;;4.07;1.30;;;;;;;;;;5015676;28;20493;-80
2023/11/25 08:18:40;;;;;;;3.37;1.30;;;;;;;;;;5015554;28;20411;-80
2023/11/25 08:21:07;;;;;;;2.30;1.40;;;;;;;;;;5014964;28;20468;-80
2023/11/25 08:23:32;;;;;;;3.03;1.00;;;;;;;;;;5015458;28;20473;-80
2023/11/25 08:25:58;;;;;;;4.00;0.90;;;;;;;;;;5015313;28;20429;-80
2023/11/25 08:28:25;;;;;;;4.90;0.87;;;;;;;;;;5014595;28;20888;-80
2023/11/25 08:30:51;;;;;;;6.13;1.40;;;;;;;;;;5008570;28;20469;-80
2023/11/25 08:33:17;;;;;;;4.63;1.27;;;;;;;;;;5009480;28;20472;-80
2023/11/25 08:35:43;;;;;;;5.93;1.17;;;;;;;;;;4999309;28;20511;-80
2023/11/25 08:38:10;;;;;;;5.87;1.10;;;;;;;;;;5006871;28;20414;-80
2023/11/25 08:40:36;;;;;;;5.50;0.90;;;;;;;;;;5013655;28;20456;-80
2023/11/25 08:43:08;;;;;;;5.63;1.33;;;;;;;;;;5004656;28;20890;-79
2023/11/25 08:45:34;;;;;;;5.17;1.67;;;;;;;;;;5002249;28;20485;-79
2023/11/25 08:48:00;;;;;;;2.43;1.17;;;;;;;;;;5000418;28;20418;-80
2023/11/25 08:50:28;;;;;;;4.73;1.10;;;;;;;;;;5014098;28;20414;-81
2023/11/25 08:52:54;;;;;;;3.13;1.13;;;;;;;;;;5014707;28;20411;-80
2023/11/25 08:55:22;;;;;;;3.03;0.87;;;;;;;;;;5014824;28;20769;-80
2023/11/25 08:57:48;;;;;;;3.20;1.00;;;;;;;;;;5014846;28;20968;-80
2023/11/25 09:00:14;;;;;;;3.17;0.43;;;;;;;;;;5014635;28;20505;-80
2023/11/25 09:02:44;;;;;;;5.17;1.03;;;;;;;;;;5014587;28;20415;-81
2023/11/25 09:05:10;;;;;;;4.30;0.63;;;;;;;;;;5014294;28;20410;-81
2023/11/25 09:07:41;;;;;;;3.90;1.30;;;;;;;;;;5014595;28;20416;-81
2023/11/25 09:10:07;;;;;;;6.40;0.67;;;;;;;;;;5014587;28;20406;-81
2023/11/25 09:12:33;;;;;;;7.40;1.00;;;;;;;;;;5014264;28;20928;-81
2023/11/25 09:15:00;;;;;;;5.27;0.60;;;;;;;;;;5014660;28;20411;-80
2023/11/25 09:17:26;;;;;;;7.23;0.50;;;;;;;;;;5013199;28;20437;-80
2023/11/25 09:19:52;;;;;;;4.43;1.80;;;;;;;;;;5013788;28;20415;-80
2023/11/25 09:22:18;;;;;;;6.57;0.70;;;;;;;;;;5014113;28;20535;-80
2023/11/25 09:24:44;;;;;;;2.43;0.60;;;;;;;;;;5014348;28;20427;-82
2023/11/25 09:27:13;;;;;;;4.43;0.93;;;;;;;;;;5014203;28;20422;-80
2023/11/25 09:29:42;;;;;;;4.80;0.60;;;;;;;;;;5014161;28;20494;-81
2023/11/25 09:32:08;;;;;;;5.97;1.57;;;;;;;;;;5016110;28;20470;-81
2023/11/25 09:34:33;;;;;;;2.80;0.80;;;;;;;;;;5014078;28;20407;-83
2023/11/25 09:37:00;;;;;;;7.70;1.00;;;;;;;;;;5012427;28;20935;-81
2023/11/25 09:39:26;;;;;;;4.60;1.03;;;;;;;;;;5012818;28;20479;-82
2023/11/25 09:41:52;;;;;;;5.87;0.37;;;;;;;;;;5013908;28;20471;-83
2023/11/25 09:44:18;;;;;;;2.50;0.40;;;;;;;;;;5007574;28;20820;-83
2023/11/25 09:46:44;;;;;;;9.13;1.50;;;;;;;;;;5013900;28;20474;-83
2023/11/25 09:49:10;;;;;;;4.57;1.10;;;;;;;;;;5013948;28;20445;-83
2023/11/25 09:51:36;;;;;;;3.10;0.83;;;;;;;;;;5001276;28;20438;-82
2023/11/25 09:54:07;;;;;;;3.17;0.37;;;;;;;;;;5010802;28;20429;-83
2023/11/25 09:56:36;;;;;;;2.47;0.60;;;;;;;;;;5005069;28;20845;-82
2023/11/25 09:59:03;;;;;;;1.87;0.50;;;;;;;;;;5023622;28;20415;-81
2023/11/25 10:01:29;;;;;;;3.00;0.20;;;;;;;;;;5018740;28;20996;-84
2023/11/25 10:03:55;;;;;;;4.97;0.63;;;;;;;;;;5013401;28;20518;-82
2023/11/25 10:06:22;;;;;;;4.80;0.93;;;;;;;;;;5012888;28;20440;-83
2023/11/25 10:08:48;;;;;;;3.03;0.60;;;;;;;;;;5013535;28;20942;-82
2023/11/25 10:11:14;;;;;;;3.23;0.60;;;;;;;;;;5012177;28;20485;-83
2023/11/25 10:13:42;;;;;;;5.03;0.50;;;;;;;;;;5013540;28;20453;-82
2023/11/25 10:16:08;;;;;;;5.57;0.27;;;;;;;;;;5013367;28;20562;-82
2023/11/25 10:18:38;;;;;;;2.00;0.20;;;;;;;;;;5013194;28;20412;-83
2023/11/25 10:21:05;;;;;;;2.30;0.87;;;;;;;;;;5012918;28;20887;-83
2023/11/25 10:23:32;;;;;;;3.43;0.40;;;;;;;;;;5013258;28;20411;-84
2023/11/25 10:26:03;;;;;;;2.93;0.30;;;;;;;;;;5013278;28;20418;-85
2023/11/25 10:28:32;;;;;;;3.50;0.30;;;;;;;;;;5013157;28;20433;-85
2023/11/25 10:30:59;;;;;;;1.70;0.20;;;;;;;;;;5013135;28;20450;-86
2023/11/25 10:33:27;;;;;;;3.10;0.40;;;;;;;;;;5013262;28;20785;-85
2023/11/25 10:35:53;;;;;;;2.63;0.30;;;;;;;;;;5012782;28;20406;-83
2023/11/25 10:38:22;;;;;;;2.73;0.43;;;;;;;;;;5013123;28;20569;-85
2023/11/25 10:40:51;;;;;;;3.13;0.30;;;;;;;;;;5011802;28;20470;-84
2023/11/25 10:43:20;;;;;;;2.90;0.20;;;;;;;;;;5013065;28;20426;-83
2023/11/25 10:45:46;;;;;;;3.57;0.40;;;;;;;;;;5012343;28;20451;-83
2023/11/25 10:48:12;;;;;;;1.90;0.30;;;;;;;;;;5013117;28;20440;-84
2023/11/25 10:50:42;;;;;;;3.63;0.33;;;;;;;;;;5012936;28;20409;-83
2023/11/25 10:53:13;;;;;;;2.33;0.47;;;;;;;;;;5012733;28;20417;-83
2023/11/25 10:55:39;;;;;;;1.50;0.20;;;;;;;;;;5012747;28;20445;-82
2023/11/25 10:58:05;;;;;;;2.93;0.30;;;;;;;;;;5012975;28;20409;-83
2023/11/25 11:00:31;;;;;;;4.17;0.20;;;;;;;;;;5013046;28;20830;-82
2023/11/25 11:03:01;;;;;;;3.43;0.37;;;;;;;;;;5013089;28;20417;-82
2023/11/25 11:05:34;;;;;;;1.63;0.20;;;;;;;;;;5012788;28;20437;-82
2023/11/25 11:08:14;;;;;;;4.20;0.43;;;;;;;;;;5012864;28;20768;-82
2023/11/25 11:10:47;;;;;;;0.83;0.43;;;;;;;;;;5013163;28;20809;-83
2023/11/25 11:13:13;;;;;;;2.80;0.50;;;;;;;;;;5017035;28;20929;-82
2023/11/25 11:15:39;;;;;;;1.60;0.30;;;;;;;;;;5015738;28;20456;-82
2023/11/25 11:18:24;;;;;;;3.27;0.30;;;;;;;;;;5017213;28;20494;-82
2023/11/25 11:20:51;;;;;;;3.23;0.57;;;;;;;;;;5016624;28;20568;-82
2023/11/25 11:23:19;;;;;;;4.07;0.33;;;;;;;;;;5015642;28;20415;-82
2023/11/25 11:25:45;;;;;;;1.80;0.20;;;;;;;;;;5015713;28;20798;-82
2023/11/25 11:28:23;;;;;;;3.00;0.30;;;;;;;;;;5016898;28;20416;-83
2023/11/25 11:30:58;;;;;;;3.30;0.50;;;;;;;;;;5015596;28;20223;-82
2023/11/25 11:33:25;;;;;;;2.40;0.30;;;;;;;;;;5016344;28;20753;-82
2023/11/25 11:35:50;;;;;;;3.83;0.43;;;;;;;;;;5016429;28;20429;-82
2023/11/25 11:38:30;;;;;;;4.03;0.50;;;;;;;;;;5016697;28;20491;-82
2023/11/25 11:40:59;;;;;;;2.37;0.77;;;;;;;;;;5016545;28;20470;-82
2023/11/25 11:43:25;;;;;;;3.33;0.50;;;;;;;;;;5016642;28;20464;-82
2023/11/25 11:45:53;;;;;;;2.20;0.50;;;;;;;;;;5016393;28;20482;-82
2023/11/25 11:48:21;;;;;;;4.37;0.43;;;;;;;;;;5016280;28;20508;-82
2023/11/25 11:50:54;;;;;;;5.20;0.80;;;;;;;;;;5016091;28;20752;-82
2023/11/25 11:53:21;;;;;;;2.10;0.60;;;;;;;;;;5016520;28;20797;-82
2023/11/25 11:55:53;;;;;;;2.53;0.60;;;;;;;;;;5016405;28;20437;-82
2023/11/25 11:58:23;;;;;;;2.60;0.57;;;;;;;;;;5016341;28;20765;-82
2023/11/25 12:00:53;;;;;;;5.10;0.43;;;;;;;;;;5003286;28;20473;-82
2023/11/25 12:03:19;;;;;;;6.00;0.50;;;;;;;;;;4996414;28;20771;-82
2023/11/25 12:05:46;;;;;;;4.87;0.70;;;;;;;;;;4995884;28;20418;-82
2023/11/25 12:08:12;;;;;;;1.90;0.30;;;;;;;;;;4996177;28;20502;-82
2023/11/25 12:10:38;;;;;;;3.70;0.73;;;;;;;;;;4995948;28;20414;-83
2023/11/25 12:13:04;;;;;;;2.43;0.30;;;;;;;;;;4996065;28;20430;-82
2023/11/25 12:15:31;;;;;;;4.70;0.50;;;;;;;;;;4995959;28;20430;-82
2023/11/25 12:17:57;;;;;;;1.43;0.33;;;;;;;;;;4996106;28;20417;-82
2023/11/25 12:20:26;;;;;;;3.13;0.57;;;;;;;;;;4995581;28;20406;-82
2023/11/25 12:22:52;;;;;;;2.50;0.30;;;;;;;;;;4995492;28;20887;-82
2023/11/25 12:25:19;;;;;;;3.20;0.47;;;;;;;;;;4995853;28;20408;-82
2023/11/25 12:27:47;;;;;;;3.40;0.50;;;;;;;;;;4998675;28;20509;-82
2023/11/25 12:30:13;;;;;;;1.97;0.33;;;;;;;;;;5015129;28;20408;-82
2023/11/25 12:32:40;;;;;;;2.10;0.53;;;;;;;;;;5015334;28;20536;-82
2023/11/25 12:35:11;;;;;;;2.90;0.40;;;;;;;;;;5014741;28;20447;-82
2023/11/25 12:37:37;;;;;;;2.30;0.40;;;;;;;;;;5015233;28;20428;-82
2023/11/25 12:40:18;;;;;;;4.30;0.50;;;;;;;;;;5015239;28;20985;-82
2023/11/25 12:42:46;;;;;;;2.90;1.07;;;;;;;;;;5015095;28;20543;-82
2023/11/25 12:45:27;;;;;;;4.73;0.70;;;;;;;;;;5015118;28;20930;-82
2023/11/25 12:47:52;;;;;;;3.53;0.30;;;;;;;;;;5015137;28;20418;-82
2023/11/25 12:50:18;;;;;;;2.20;0.73;;;;;;;;;;5006442;28;20426;-82
2023/11/25 12:52:52;;;;;;;3.43;0.50;;;;;;;;;;5004889;28;20629;-81
2023/11/25 12:55:34;;;;;;;3.13;1.10;;;;;;;;;;5007914;28;20452;-82
2023/11/25 12:58:07;;;;;;;5.10;0.70;;;;;;;;;;5005155;28;20813;-82
2023/11/25 13:00:34;;;;;;;2.43;0.57;;;;;;;;;;4995222;28;21274;-82
2023/11/25 13:03:00;;;;;;;2.87;0.77;;;;;;;;;;4995132;28;20430;-82
2023/11/25 13:05:27;;;;;;;2.60;0.97;;;;;;;;;;4994755;28;20505;-81
2023/11/25 13:07:54;;;;;;;6.07;0.73;;;;;;;;;;4995001;28;20448;-82
2023/11/25 13:10:20;;;;;;;3.37;0.50;;;;;;;;;;4995087;28;20490;-82
2023/11/25 13:12:47;;;;;;;2.20;0.73;;;;;;;;;;5004887;28;20439;-82
2023/11/25 13:15:12;;;;;;;7.37;1.87;;;;;;;;;;4995958;28;20498;-81
2023/11/25 13:17:40;;;;;;;4.83;0.63;;;;;;;;;;5010353;28;20531;-81
2023/11/25 13:20:16;;;;;;;4.17;1.10;;;;;;;;;;5011492;28;20868;-81
2023/11/25 13:22:42;;;;;;;3.50;0.83;;;;;;;;;;5014191;28;20432;-82
2023/11/25 13:25:08;;;;;;;7.00;1.20;;;;;;;;;;5014297;28;20911;-81
2023/11/25 13:27:34;;;;;;;7.83;1.23;;;;;;;;;;5014244;28;20448;-81
2023/11/25 13:30:00;;;;;;;4.93;0.73;;;;;;;;;;5014091;28;20440;-81
2023/11/25 13:32:26;;;;;;;3.90;0.83;;;;;;;;;;5014163;28;20513;-81
2023/11/25 13:34:52;;;;;;;1.97;0.70;;;;;;;;;;5009082;28;20429;-82
2023/11/25 13:37:17;;;;;;;2.57;0.83;;;;;;;;;;4995470;28;20416;-81
2023/11/25 13:39:45;;;;;;;4.00;0.83;;;;;;;;;;5001683;28;20893;-82
2023/11/25 13:42:11;;;;;;;3.13;0.67;;;;;;;;;;5014134;28;20472;-82
2023/11/25 13:44:37;;;;;;;2.70;0.60;;;;;;;;;;5011668;28;20444;-82
2023/11/25 13:47:03;;;;;;;3.30;0.30;;;;;;;;;;5014098;28;20421;-82
2023/11/25 13:49:29;;;;;;;1.87;0.30;;;;;;;;;;5013543;28;20902;-82
2023/11/25 13:51:56;;;;;;;2.47;0.43;;;;;;;;;;5014170;28;20433;-82
2023/11/25 13:54:24;;;;;;;1.70;0.30;;;;;;;;;;5014081;28;20414;-82
2023/11/25 13:56:51;;;;;;;1.60;0.73;;;;;;;;;;5014007;28;20473;-82
2023/11/25 13:59:17;;;;;;;1.50;0.20;;;;;;;;;;5014005;28;20409;-81
2023/11/25 14:01:43;;;;;;;1.10;0.50;;;;;;;;;;5013873;28;20479;-82
2023/11/25 14:04:09;;;;;;;3.60;0.23;;;;;;;;;;5013540;28;20409;-82
2023/11/25 14:06:35;;;;;;;3.73;0.40;;;;;;;;;;5013798;28;20417;-82
2023/11/25 14:09:03;;;;;;;2.60;0.40;;;;;;;;;;5013629;28;20468;-82
2023/11/25 14:11:31;;;;;;;2.37;0.40;;;;;;;;;;5013810;28;20417;-82
2023/11/25 14:13:57;;;;;;;1.30;0.50;;;;;;;;;;5013744;28;20439;-81
2023/11/25 14:16:23;;;;;;;1.63;0.23;;;;;;;;;;5013794;28;20501;-82
2023/11/25 14:18:50;;;;;;;1.60;0.30;;;;;;;;;;5013206;28;20775;-82
2023/11/25 14:21:16;;;;;;;1.10;0.20;;;;;;;;;;5013374;28;20505;-82
2023/11/25 14:23:42;;;;;;;0.90;0.27;;;;;;;;;;5013607;28;20408;-82
2023/11/25 14:26:09;;;;;;;2.57;0.30;;;;;;;;;;5013604;28;20802;-82
2023/11/25 14:28:35;;;;;;;2.90;0.50;;;;;;;;;;5013546;28;20404;-82
2023/11/25 14:31:02;;;;;;;1.70;0.60;;;;;;;;;;5011967;28;20570;-83
2023/11/25 14:33:28;;;;;;;2.83;0.67;;;;;;;;;;5013524;28;20408;-82
2023/11/25 14:35:53;;;;;;;3.90;1.00;;;;;;;;;;5013065;28;20896;-81
2023/11/25 14:38:22;;;;;;;1.00;0.53;;;;;;;;;;5013408;28;20416;-82
2023/11/25 14:40:48;;;;;;;4.40;0.83;;;;;;;;;;5012763;28;20496;-82
2023/11/25 14:43:14;;;;;;;3.40;0.80;;;;;;;;;;5013198;28;20781;-82